KBURKSQL

Guest
Details From KBUR - BOB HOPE
To KSQL - San Carlos
Flight Number -
Tags decoded
Created
Modified
Stats Distance 275 nm / 510 km
Max Altitude 0 ft / 0 m
Waypoints 5
Social Downloads 1
Likes 0
Share VATSIM

Download

Looking for another format? Having issues loading an existing format? Contact us
Advertisement - Login to hide

Notes

Requested: KBUR VNY2 AVE ROM GILRO KSQL Unmatched points: VNY2

Route

KBUR AVE ROM GILRO KSQL

ID Type Via Altitude Latitude Longitude Leg Dist Tot Dist Heading (true) Name
O KBUR APT - 0 ft / 0 m 34.20048˚ -118.35877˚ - 0 nm - BOB HOPE
AVE VOR - 0 ft / 0 m 35.64697˚ -119.97861˚ 117 nm 117 nm 318° / 317° AVENAL VORTAC
ROM VOR - 0 ft / 0 m 36.14039˚ -120.66492˚ 44 nm 162 nm 312° / 311° PRIEST VOR
GILRO FIX - 0 ft / 0 m 37.04628˚ -121.56854˚ 69 nm 232 nm 322° / 321° -
O KSQL APT - 0 ft / 0 m 37.51173˚ -122.24939˚ 42 nm 275 nm 311° / 310° San Carlos

Altitude Profile

Advertisement - Login to hide

Weather


0- 5 10 15 20 25 30 35+ Temperature / ° C

Clouds and Precipitation
Forecast for 2017-12-17 18:00 UTC. Updated an hour ago

Ground ~20,000 ft ~40,000 ft Winds

KBUR

Details ICAO KBUR (BUR)
Name BOB HOPE
Region United States
Timezone America/Los_Angeles (UTC-8.0)
Stats Elevation 778 ft / 237 m (AMSL)
Location 34.200475° -118.358767°
Runways 2
Magnetic Variation 12.046° E

METAR

KBUR 171553Z 36022G30KT 10SM BLDU CLR 13/M10 A2992 RMK AO2 PK WND 03041/1502 SLP126 T01331100

Decode

TAF

TAF AMD KBUR 171459Z 1715/1812 04030G40KT 4SM BLDU SKC WS010/04035KT FM171700 05020G30KT P6SM SKC FM180100 VRB03KT P6SM SKC

Decode

Departure Runways

ID Width Length Bearing (true) Bearing (mag) Surface Threshold Offset Overrun Length
08 151 ft / 46 m 5,835 ft / 1,779 m 90.92° 78.87° Asphalt 0 ft / 0 m 259 ft / 79 m
15 151 ft / 46 m 6,962 ft / 2,122 m 167.12° 155.07° Asphalt 909 ft / 277 m 0 ft / 0 m
26 151 ft / 46 m 5,835 ft / 1,779 m 270.93° 258.88° Asphalt 0 ft / 0 m 253 ft / 77 m
33 151 ft / 46 m 6,962 ft / 2,122 m 347.12° 335.07° Asphalt 351 ft / 107 m 0 ft / 0 m

KSQL

Details ICAO KSQL (SQL)
Name San Carlos
Region United States
Timezone America/Los_Angeles (UTC-8.0)
Stats Elevation 5 ft / 2 m (AMSL)
Location 37.511735° -122.249386°
Runways 1
Magnetic Variation 13.421° E

METAR

KSQL 171547Z 00000KT 10SM FEW200 07/M04 A3004

Decode

TAF

Not found

Destination Runways

ID Width Length Bearing (true) Bearing (mag) Surface Threshold Offset Overrun Length
12 75 ft / 23 m 2,619 ft / 798 m 138.39° 124.97° Asphalt 0 ft / 0 m 299 ft / 91 m
30 75 ft / 23 m 2,619 ft / 798 m 318.40° 304.98° Asphalt 0 ft / 0 m 135 ft / 41 m

Popular Alternatives